Time;durP1;ratioP1;P1;durP2;ratioP2;P2;SDS_P1;SDS_P2;PMS_P1;PMS_P2;Temp;Humidity;BMP_temperature;BMP_pressure;BME280_temperature;BME280_humidity;BME280_pressure;Samples;Min_cycle;Max_cycle;Signal;HPM_P1;HPM_P2
2020/12/29 00:02:23;;;;;;;1.20;0.88;;;2.80;99.90;;;;;;4384003;32;20082;-74
2020/12/29 00:04:48;;;;;;;0.93;0.90;;;2.90;99.90;;;;;;4384528;32;20058;-74
2020/12/29 00:07:14;;;;;;;1.73;1.10;;;2.90;99.90;;;;;;4396942;32;20054;-74
2020/12/29 00:09:39;;;;;;;1.10;1.00;;;2.90;99.90;;;;;;4399047;32;20401;-75
2020/12/29 00:12:05;;;;;;;0.40;0.40;;;2.90;99.90;;;;;;4399408;32;20388;-73
2020/12/29 00:14:31;;;;;;;0.50;0.50;;;2.90;99.90;;;;;;4398905;32;20069;-73
2020/12/29 00:16:56;;;;;;;0.73;0.73;;;2.90;99.90;;;;;;4398637;32;20074;-73
2020/12/29 00:19:24;;;;;;;0.60;0.60;;;2.80;99.90;;;;;;4383786;32;20131;-73
2020/12/29 00:21:50;;;;;;;2.60;1.27;;;2.80;99.90;;;;;;4383326;32;20065;-75
2020/12/29 00:24:16;;;;;;;0.93;0.93;;;2.90;99.90;;;;;;4383485;32;20445;-73
2020/12/29 00:26:42;;;;;;;1.23;1.15;;;2.90;99.90;;;;;;4383359;32;20111;-74
2020/12/29 00:29:08;;;;;;;0.90;0.90;;;2.80;99.90;;;;;;4383663;32;20073;-74
2020/12/29 00:31:34;;;;;;;1.12;1.05;;;2.80;99.90;;;;;;4383522;32;20050;-74
2020/12/29 00:34:02;;;;;;;0.77;0.77;;;2.80;99.90;;;;;;4383790;32;20589;-74
2020/12/29 00:36:27;;;;;;;2.12;1.70;;;2.80;99.90;;;;;;4383823;32;20063;-74
2020/12/29 00:38:53;;;;;;;0.60;0.60;;;2.80;99.90;;;;;;4383402;32;20067;-74
2020/12/29 00:41:19;;;;;;;3.67;1.77;;;2.80;99.90;;;;;;4383280;32;20063;-74
2020/12/29 00:43:45;;;;;;;1.45;1.35;;;2.80;99.90;;;;;;4383023;32;20189;-74
2020/12/29 00:46:13;;;;;;;0.90;0.90;;;2.80;99.90;;;;;;4383729;32;20125;-74
2020/12/29 00:48:38;;;;;;;1.40;0.98;;;2.80;99.90;;;;;;4383698;32;20063;-74
2020/12/29 00:51:07;;;;;;;2.80;1.48;;;2.80;99.90;;;;;;4385135;32;20518;-74
2020/12/29 00:53:34;;;;;;;1.67;1.15;;;2.80;99.90;;;;;;4386402;32;20425;-74
2020/12/29 00:56:00;;;;;;;0.98;0.98;;;2.70;99.90;;;;;;4386373;32;20079;-74
2020/12/29 00:58:26;;;;;;;1.27;1.17;;;2.70;99.90;;;;;;4387165;32;20529;-74
2020/12/29 01:00:52;;;;;;;0.75;0.75;;;2.60;99.90;;;;;;4386265;32;20063;-74
2020/12/29 01:03:17;;;;;;;1.45;1.20;;;2.70;99.90;;;;;;4386641;32;20133;-74
2020/12/29 01:05:44;;;;;;;0.60;0.60;;;2.70;99.90;;;;;;4390936;32;20086;-74
2020/12/29 01:08:10;;;;;;;1.50;1.10;;;2.70;99.90;;;;;;4402585;32;20079;-74
2020/12/29 01:10:35;;;;;;;0.43;0.43;;;2.70;99.90;;;;;;4400917;32;20570;-74
2020/12/29 01:13:01;;;;;;;0.90;0.90;;;2.60;99.90;;;;;;4401408;32;20077;-74
2020/12/29 01:15:26;;;;;;;0.50;0.50;;;2.60;99.90;;;;;;4401062;32;20066;-74
2020/12/29 01:17:52;;;;;;;1.10;1.00;;;2.60;99.90;;;;;;4395035;32;20062;-74
2020/12/29 01:20:18;;;;;;;1.15;1.08;;;2.60;99.90;;;;;;4385875;32;20058;-74
2020/12/29 01:22:43;;;;;;;0.50;0.50;;;2.60;99.90;;;;;;4385219;32;20070;-74
2020/12/29 01:25:08;;;;;;;1.60;1.27;;;2.60;99.90;;;;;;4385267;32;20418;-74
2020/12/29 01:27:35;;;;;;;3.33;1.62;;;2.70;99.90;;;;;;4385598;32;20070;-74
2020/12/29 01:30:02;;;;;;;1.48;0.98;;;2.70;99.90;;;;;;4385828;32;20058;-73
2020/12/29 01:32:28;;;;;;;0.65;0.65;;;2.80;99.90;;;;;;4385749;32;20085;-74
2020/12/29 01:34:53;;;;;;;0.60;0.60;;;2.80;99.90;;;;;;4386742;32;20066;-75
2020/12/29 01:37:19;;;;;;;9.98;2.85;;;2.70;99.90;;;;;;4385769;32;20102;-74
2020/12/29 01:39:44;;;;;;;0.75;0.75;;;2.70;99.90;;;;;;4386581;32;20082;-74
2020/12/29 01:42:11;;;;;;;1.37;1.27;;;2.70;99.90;;;;;;4386147;32;20066;-74
2020/12/29 01:44:36;;;;;;;1.37;1.23;;;2.80;99.90;;;;;;4385869;32;20442;-74
2020/12/29 01:47:02;;;;;;;0.73;0.70;;;2.80;99.90;;;;;;4385838;32;20070;-75
2020/12/29 01:49:27;;;;;;;0.93;0.93;;;2.90;99.90;;;;;;4386023;32;20508;-74
2020/12/29 01:51:53;;;;;;;1.60;1.50;;;2.90;99.90;;;;;;4385190;32;20061;-74
2020/12/29 01:54:18;;;;;;;0.60;0.60;;;2.80;99.90;;;;;;4385963;32;20452;-74
2020/12/29 01:56:44;;;;;;;0.77;0.77;;;2.90;99.90;;;;;;4385106;32;20083;-73
2020/12/29 01:59:13;;;;;;;6.05;2.80;;;2.90;99.90;;;;;;4386167;32;20061;-74
2020/12/29 02:01:41;;;;;;;1.37;1.05;;;2.80;99.90;;;;;;4385946;32;20066;-74
2020/12/29 02:04:08;;;;;;;1.55;0.80;;;2.80;99.90;;;;;;4385147;32;20111;-74
2020/12/29 02:06:34;;;;;;;0.98;0.98;;;2.80;99.90;;;;;;4394391;32;20058;-74
2020/12/29 02:09:01;;;;;;;0.57;0.57;;;2.90;99.90;;;;;;4401869;32;20054;-74
2020/12/29 02:11:27;;;;;;;1.45;1.35;;;2.80;99.90;;;;;;4400449;32;20069;-74
2020/12/29 02:13:52;;;;;;;0.82;0.82;;;2.80;99.90;;;;;;4400389;32;20118;-74
2020/12/29 02:16:18;;;;;;;4.95;1.48;;;2.80;99.90;;;;;;4401253;32;20066;-74
2020/12/29 02:18:43;;;;;;;1.27;1.10;;;2.90;99.90;;;;;;4388435;32;20129;-74
2020/12/29 02:21:08;;;;;;;3.90;1.45;;;2.90;99.90;;;;;;4385061;32;20070;-75
2020/12/29 02:23:34;;;;;;;1.35;0.95;;;2.90;99.90;;;;;;4384637;32;20062;-74
2020/12/29 02:26:00;;;;;;;2.37;1.48;;;2.90;99.90;;;;;;4386039;32;20063;-75
2020/12/29 02:28:25;;;;;;;0.98;0.95;;;3.00;99.90;;;;;;4385056;32;20531;-74
2020/12/29 02:30:51;;;;;;;0.80;0.80;;;3.00;99.90;;;;;;4386120;32;20066;-74
2020/12/29 02:33:16;;;;;;;1.15;1.05;;;2.90;99.90;;;;;;4385771;32;20129;-74
2020/12/29 02:35:42;;;;;;;5.07;0.75;;;2.80;99.90;;;;;;4384758;32;20122;-74
2020/12/29 02:38:07;;;;;;;0.62;0.62;;;2.80;99.90;;;;;;4385707;32;20117;-74
2020/12/29 02:40:33;;;;;;;2.08;1.90;;;2.80;99.90;;;;;;4384311;32;20074;-74
2020/12/29 02:42:58;;;;;;;0.65;0.65;;;2.80;99.90;;;;;;4384635;32;20167;-74
2020/12/29 02:45:24;;;;;;;0.60;0.60;;;2.80;99.90;;;;;;4384482;32;20084;-74
2020/12/29 02:47:49;;;;;;;0.75;0.75;;;2.80;99.90;;;;;;4384672;32;20062;-73
2020/12/29 02:50:15;;;;;;;2.47;0.68;;;2.80;99.90;;;;;;4385899;32;20062;-73
2020/12/29 02:52:40;;;;;;;0.37;0.37;;;2.80;99.90;;;;;;4384341;32;20124;-74
2020/12/29 02:55:06;;;;;;;1.77;1.55;;;2.80;99.90;;;;;;4384991;32;20075;-73
2020/12/29 02:57:31;;;;;;;0.93;0.80;;;2.80;99.90;;;;;;4384258;32;20064;-73
2020/12/29 02:59:57;;;;;;;0.52;0.52;;;2.80;99.90;;;;;;4384810;32;20074;-73
2020/12/29 03:02:22;;;;;;;2.60;1.58;;;2.70;99.90;;;;;;4385419;32;20129;-73
2020/12/29 03:04:47;;;;;;;1.42;1.27;;;2.60;99.90;;;;;;4385416;32;20075;-73
2020/12/29 03:07:13;;;;;;;10.88;1.20;;;2.60;99.90;;;;;;4397796;32;20082;-73
2020/12/29 03:09:39;;;;;;;0.75;0.75;;;2.60;99.90;;;;;;4399239;32;20074;-73
2020/12/29 03:12:05;;;;;;;1.00;0.88;;;2.70;99.90;;;;;;4399294;32;20070;-73
2020/12/29 03:14:30;;;;;;;0.70;0.70;;;2.80;99.90;;;;;;4398571;32;20128;-73
2020/12/29 03:16:56;;;;;;;1.15;1.08;;;2.70;99.90;;;;;;4399431;32;20066;-73
2020/12/29 03:19:22;;;;;;;3.33;1.80;;;2.80;99.90;;;;;;4384572;32;20078;-73
2020/12/29 03:21:48;;;;;;;0.55;0.45;;;2.90;99.90;;;;;;4383471;32;20075;-74
2020/12/29 03:24:14;;;;;;;18.17;1.55;;;2.90;99.90;;;;;;4384426;32;20421;-74
2020/12/29 03:26:39;;;;;;;0.70;0.70;;;2.70;99.90;;;;;;4384182;32;20058;-74
2020/12/29 03:29:05;;;;;;;0.40;0.40;;;2.60;99.90;;;;;;4384387;32;20062;-75
2020/12/29 03:31:31;;;;;;;2.20;1.45;;;2.70;99.90;;;;;;4384527;32;20058;-74
2020/12/29 03:33:57;;;;;;;0.98;0.98;;;2.60;99.90;;;;;;4384792;32;20066;-73
2020/12/29 03:36:22;;;;;;;0.68;0.60;;;2.70;99.90;;;;;;4384358;32;20500;-73
2020/12/29 03:38:48;;;;;;;1.33;0.88;;;2.60;99.90;;;;;;4384407;32;20082;-73
2020/12/29 03:41:13;;;;;;;0.32;0.32;;;2.60;99.90;;;;;;4384211;32;20110;-72
2020/12/29 03:43:39;;;;;;;1.37;1.25;;;2.60;99.90;;;;;;4383585;32;20074;-73
2020/12/29 03:46:04;;;;;;;0.80;0.80;;;2.60;99.90;;;;;;4385469;32;20074;-73
2020/12/29 03:48:29;;;;;;;1.08;0.98;;;2.60;99.90;;;;;;4383954;32;20466;-73
2020/12/29 03:50:55;;;;;;;0.93;0.93;;;2.60;99.90;;;;;;4383896;32;20063;-73
2020/12/29 03:53:21;;;;;;;0.65;0.65;;;2.50;99.90;;;;;;4384160;32;20066;-73
2020/12/29 03:55:46;;;;;;;0.65;0.65;;;2.40;99.90;;;;;;4383730;32;20057;-74
2020/12/29 03:58:12;;;;;;;0.60;0.60;;;2.50;99.90;;;;;;4383991;32;20070;-74
2020/12/29 04:00:37;;;;;;;0.70;0.70;;;2.50;99.90;;;;;;4384338;32;20131;-74
2020/12/29 04:03:04;;;;;;;2.35;1.12;;;2.50;99.90;;;;;;4384033;32;20075;-74
2020/12/29 04:05:30;;;;;;;1.55;1.45;;;2.50;99.90;;;;;;4386848;32;20066;-74
2020/12/29 04:07:55;;;;;;;1.98;1.67;;;2.60;99.90;;;;;;4399189;32;20466;-74
2020/12/29 04:10:21;;;;;;;6.32;1.60;;;2.60;99.90;;;;;;4398414;32;20054;-74
2020/12/29 04:12:47;;;;;;;0.88;0.88;;;2.60;99.90;;;;;;4398772;32;20066;-74
2020/12/29 04:15:12;;;;;;;2.03;1.08;;;2.60;99.90;;;;;;4398708;32;20125;-74
2020/12/29 04:17:39;;;;;;;0.88;0.88;;;2.50;99.90;;;;;;4394123;32;20117;-74
2020/12/29 04:20:07;;;;;;;1.48;1.30;;;2.50;99.90;;;;;;4383460;32;20589;-75
2020/12/29 04:22:34;;;;;;;0.80;0.80;;;2.50;99.90;;;;;;4382899;32;20078;-73
2020/12/29 04:25:00;;;;;;;0.75;0.75;;;2.50;99.90;;;;;;4383704;32;20062;-73
2020/12/29 04:27:26;;;;;;;2.30;1.65;;;2.50;99.90;;;;;;4383590;32;20082;-74
2020/12/29 04:29:53;;;;;;;0.62;0.62;;;2.50;99.90;;;;;;4383834;32;20118;-73
2020/12/29 04:32:18;;;;;;;1.17;1.10;;;2.50;99.90;;;;;;4383436;32;20078;-73
2020/12/29 04:34:45;;;;;;;0.60;0.60;;;2.50;99.90;;;;;;4383974;32;20075;-73
2020/12/29 04:37:11;;;;;;;2.60;2.03;;;2.60;99.90;;;;;;4383711;32;20077;-75
2020/12/29 04:39:37;;;;;;;0.73;0.73;;;2.70;99.90;;;;;;4383458;32;20488;-74
2020/12/29 04:42:05;;;;;;;1.98;1.75;;;2.60;99.90;;;;;;4383265;32;20071;-74
2020/12/29 04:44:31;;;;;;;0.93;0.93;;;2.60;99.90;;;;;;4384111;32;20070;-74
2020/12/29 04:46:56;;;;;;;0.50;0.50;;;2.70;99.90;;;;;;4384479;32;20117;-74
2020/12/29 04:49:22;;;;;;;0.85;0.85;;;2.70;99.90;;;;;;4383273;32;20493;-74
2020/12/29 04:51:50;;;;;;;3.15;1.75;;;2.80;99.90;;;;;;4383177;32;20075;-74
2020/12/29 04:54:18;;;;;;;0.90;0.90;;;2.60;99.90;;;;;;4383320;32;20075;-73
2020/12/29 04:56:49;;;;;;;6.07;1.73;;;2.70;99.90;;;;;;4383081;32;20083;-74
2020/12/29 04:59:15;;;;;;;0.60;0.60;;;2.60;99.90;;;;;;4383750;32;20063;-74
2020/12/29 05:01:41;;;;;;;1.05;1.05;;;2.70;99.90;;;;;;4383826;32;20386;-74
2020/12/29 05:04:06;;;;;;;1.77;1.67;;;2.70;99.90;;;;;;4383734;32;20059;-74
2020/12/29 05:06:32;;;;;;;0.50;0.50;;;2.60;99.90;;;;;;4392609;32;20512;-74
2020/12/29 05:08:57;;;;;;;4.57;1.15;;;2.50;99.90;;;;;;4398116;32;20061;-74
2020/12/29 05:11:24;;;;;;;1.12;1.10;;;2.60;99.90;;;;;;4398295;32;20527;-73
2020/12/29 05:13:50;;;;;;;1.10;1.00;;;2.50;99.90;;;;;;4398763;32;20058;-73
2020/12/29 05:16:16;;;;;;;0.60;0.60;;;2.30;99.90;;;;;;4399403;32;20078;-74
2020/12/29 05:18:43;;;;;;;6.70;1.12;;;2.20;99.90;;;;;;4387304;32;20445;-74
2020/12/29 05:21:08;;;;;;;0.50;0.50;;;2.30;99.90;;;;;;4383864;32;20453;-74
2020/12/29 05:23:36;;;;;;;1.85;1.27;;;2.40;99.90;;;;;;4383792;32;20059;-74
2020/12/29 05:26:03;;;;;;;0.50;0.50;;;2.50;99.90;;;;;;4384132;32;20066;-74
2020/12/29 05:28:29;;;;;;;2.08;1.05;;;2.50;99.90;;;;;;4382843;32;20058;-74
2020/12/29 05:31:01;;;;;;;1.48;1.33;;;2.30;99.90;;;;;;4383170;32;20135;-74
2020/12/29 05:33:27;;;;;;;1.65;1.05;;;2.30;99.90;;;;;;4383100;32;20469;-74
2020/12/29 05:35:54;;;;;;;0.70;0.70;;;2.30;99.90;;;;;;4382961;32;20067;-74
2020/12/29 05:38:20;;;;;;;0.68;0.68;;;2.30;99.90;;;;;;4384684;32;20118;-74
2020/12/29 05:40:47;;;;;;;0.82;0.82;;;2.30;99.90;;;;;;4384832;32;20075;-73
2020/12/29 05:43:13;;;;;;;1.00;1.00;;;2.30;99.90;;;;;;4385276;32;20075;-74
2020/12/29 05:45:40;;;;;;;1.45;1.30;;;2.30;99.90;;;;;;4385117;32;20074;-74
2020/12/29 05:48:05;;;;;;;7.05;1.87;;;2.20;99.90;;;;;;4385779;32;20114;-74
2020/12/29 05:50:31;;;;;;;1.40;1.30;;;2.20;99.90;;;;;;4385480;32;20501;-74
2020/12/29 05:53:00;;;;;;;4.28;1.50;;;2.20;99.90;;;;;;4384965;32;20055;-74
2020/12/29 05:55:26;;;;;;;5.87;1.27;;;2.20;99.90;;;;;;4385139;32;20400;-74
2020/12/29 05:58:11;;;;;;;0.60;0.60;;;2.20;99.90;;;;;;4384827;32;20124;-74
2020/12/29 06:00:39;;;;;;;1.48;1.37;;;2.20;99.90;;;;;;4374957;32;20063;-74
2020/12/29 06:03:07;;;;;;;0.77;0.77;;;2.30;99.90;;;;;;4395846;32;20589;-74
2020/12/29 06:05:34;;;;;;;0.90;0.85;;;2.20;99.90;;;;;;4400126;32;20073;-74
2020/12/29 06:08:02;;;;;;;0.52;0.52;;;2.30;99.90;;;;;;4399242;32;20078;-74
2020/12/29 06:10:30;;;;;;;61.00;1.80;;;2.30;99.90;;;;;;4387060;32;20070;-73
2020/12/29 06:13:00;;;;;;;0.75;0.75;;;2.30;99.90;;;;;;4401474;32;20070;-74
2020/12/29 06:15:29;;;;;;;5.78;0.93;;;2.40;99.90;;;;;;4400369;32;20074;-74
2020/12/29 06:17:57;;;;;;;0.80;0.80;;;2.40;99.90;;;;;;4394182;32;20137;-74
2020/12/29 06:20:23;;;;;;;0.43;0.43;;;2.40;99.90;;;;;;4385217;32;20062;-74
2020/12/29 06:22:51;;;;;;;1.60;1.10;;;2.20;99.90;;;;;;4384622;32;20087;-73
2020/12/29 06:25:18;;;;;;;0.80;0.80;;;2.20;99.90;;;;;;4384833;32;20066;-74
2020/12/29 06:27:50;;;;;;;3.70;1.85;;;2.10;99.90;;;;;;4384976;32;20122;-74
2020/12/29 06:30:18;;;;;;;0.85;0.80;;;2.10;99.90;;;;;;4384905;32;20129;-74
2020/12/29 06:32:46;;;;;;;0.60;0.60;;;2.10;99.90;;;;;;4385103;32;20159;-74
2020/12/29 06:35:12;;;;;;;1.37;0.85;;;2.20;99.90;;;;;;4386028;32;20065;-74
2020/12/29 06:37:42;;;;;;;0.70;0.70;;;2.20;99.90;;;;;;4385824;32;20508;-74
2020/12/29 06:40:08;;;;;;;0.57;0.57;;;2.20;99.90;;;;;;4384225;32;20078;-73
2020/12/29 06:42:39;;;;;;;0.77;0.77;;;2.20;99.90;;;;;;4386057;32;20401;-74
2020/12/29 06:45:08;;;;;;;4.82;2.15;;;2.10;99.90;;;;;;4387949;32;20066;-74
2020/12/29 06:47:36;;;;;;;1.35;1.05;;;2.10;99.90;;;;;;4400038;32;20082;-74
2020/12/29 06:50:19;;;;;;;0.52;0.52;;;2.10;99.90;;;;;;4400110;32;20530;-74
2020/12/29 06:52:44;;;;;;;0.75;0.60;;;2.00;99.90;;;;;;4394332;32;20101;-74
2020/12/29 06:55:09;;;;;;;1.48;1.37;;;2.00;99.90;;;;;;4384397;32;20129;-74
2020/12/29 06:57:38;;;;;;;6.12;1.67;;;2.10;99.90;;;;;;4391362;32;20126;-74
2020/12/29 07:00:13;;;;;;;0.85;0.85;;;2.10;99.90;;;;;;4399652;32;20065;-74
2020/12/29 07:02:40;;;;;;;6.97;1.15;;;2.10;99.90;;;;;;4401418;32;20095;-74
2020/12/29 07:05:23;;;;;;;0.55;0.55;;;2.10;99.90;;;;;;4399000;32;20071;-74
2020/12/29 07:07:59;;;;;;;1.02;0.98;;;2.10;99.90;;;;;;4387031;32;20113;-74
2020/12/29 07:10:44;;;;;;;0.98;0.98;;;2.00;99.90;;;;;;4396815;32;20062;-73
2020/12/29 07:13:12;;;;;;;0.40;0.40;;;2.00;99.90;;;;;;4384629;32;20580;-74
2020/12/29 07:15:48;;;;;;;1.75;0.65;;;2.00;99.90;;;;;;4385373;32;20127;-74
2020/12/29 07:18:29;;;;;;;0.45;0.45;;;2.00;99.90;;;;;;4392649;32;20062;-74
2020/12/29 07:20:57;;;;;;;0.60;0.60;;;2.10;99.90;;;;;;4390651;32;20480;-74
2020/12/29 07:23:27;;;;;;;1.00;0.90;;;2.10;99.90;;;;;;4383738;32;20063;-74
2020/12/29 07:25:56;;;;;;;1.05;0.95;;;2.10;99.90;;;;;;4383650;32;20496;-74
2020/12/29 07:28:27;;;;;;;0.50;0.50;;;2.10;99.90;;;;;;4384706;32;20055;-74
2020/12/29 07:30:53;;;;;;;3.05;1.35;;;2.00;99.90;;;;;;4384171;32;20103;-74
2020/12/29 07:33:22;;;;;;;2.95;1.10;;;1.90;99.90;;;;;;4384764;32;20062;-74
2020/12/29 07:35:48;;;;;;;1.27;1.17;;;1.90;99.90;;;;;;4383926;32;20444;-74
2020/12/29 07:38:18;;;;;;;0.45;0.45;;;1.90;99.90;;;;;;4384253;32;20075;-74
2020/12/29 07:40:44;;;;;;;0.68;0.68;;;1.90;99.90;;;;;;4383683;32;20058;-74
2020/12/29 07:43:09;;;;;;;1.85;1.55;;;1.90;99.90;;;;;;4383824;32;20075;-74
2020/12/29 07:45:35;;;;;;;4.68;3.22;;;1.90;99.90;;;;;;4383712;32;20125;-73
2020/12/29 07:48:02;;;;;;;0.85;0.73;;;1.90;99.90;;;;;;4384238;32;20112;-74
2020/12/29 07:50:29;;;;;;;0.47;0.47;;;1.80;99.90;;;;;;4384144;32;20074;-74
2020/12/29 07:53:11;;;;;;;1.05;0.95;;;1.90;99.90;;;;;;4383630;32;20079;-74
2020/12/29 07:55:40;;;;;;;0.80;0.80;;;1.90;99.90;;;;;;4383559;32;20070;-74
2020/12/29 07:58:07;;;;;;;0.50;0.50;;;1.80;99.90;;;;;;4396681;32;20523;-74
2020/12/29 08:00:35;;;;;;;0.60;0.60;;;1.80;99.90;;;;;;4398539;32;20070;-74
2020/12/29 08:03:01;;;;;;;0.60;0.60;;;1.70;99.90;;;;;;4399011;32;20196;-74
2020/12/29 08:05:28;;;;;;;0.80;0.80;;;1.60;99.90;;;;;;4397391;32;20179;-74
2020/12/29 08:07:55;;;;;;;0.98;0.93;;;1.60;99.90;;;;;;4384111;32;20086;-74
2020/12/29 08:10:23;;;;;;;0.80;0.80;;;1.60;99.90;;;;;;4384814;32;20083;-74
2020/12/29 08:12:54;;;;;;;0.77;0.77;;;1.70;99.90;;;;;;4399494;32;20646;-74
2020/12/29 08:15:26;;;;;;;0.32;0.32;;;1.80;99.90;;;;;;4399249;32;20074;-74
2020/12/29 08:18:02;;;;;;;0.70;0.70;;;1.70;99.90;;;;;;4393274;32;20061;-74
2020/12/29 08:20:28;;;;;;;2.08;1.55;;;1.80;99.90;;;;;;4383418;32;20438;-74
2020/12/29 08:22:53;;;;;;;0.77;0.77;;;1.80;99.90;;;;;;4383194;32;20071;-74
2020/12/29 08:25:19;;;;;;;0.57;0.57;;;1.90;99.90;;;;;;4383368;32;20059;-74
2020/12/29 08:27:45;;;;;;;0.93;0.90;;;2.00;99.90;;;;;;4383591;32;20129;-74
2020/12/29 08:30:10;;;;;;;0.60;0.60;;;1.80;99.90;;;;;;4383662;32;20574;-74
2020/12/29 08:32:38;;;;;;;0.70;0.70;;;1.70;99.90;;;;;;4383634;32;20118;-74
2020/12/29 08:35:05;;;;;;;1.20;1.08;;;1.70;99.90;;;;;;4383273;32;20074;-74
2020/12/29 08:37:33;;;;;;;0.45;0.45;;;1.70;99.90;;;;;;4384261;32;20066;-74
2020/12/29 08:40:07;;;;;;;0.93;0.93;;;1.70;99.90;;;;;;4379387;32;127082;-74
2020/12/29 08:42:33;;;;;;;1.65;1.02;;;1.70;99.90;;;;;;4383476;32;20046;-74
2020/12/29 08:45:00;;;;;;;2.15;0.88;;;1.70;99.90;;;;;;4383218;32;20058;-74
2020/12/29 08:47:32;;;;;;;0.70;0.70;;;1.70;99.90;;;;;;4383345;32;20046;-74
2020/12/29 08:49:59;;;;;;;2.15;1.23;;;1.70;99.90;;;;;;4383224;32;20397;-74
2020/12/29 08:52:30;;;;;;;0.40;0.40;;;1.70;99.90;;;;;;4383263;32;20497;-74
2020/12/29 08:54:55;;;;;;;0.40;0.40;;;1.80;99.90;;;;;;4383410;32;20402;-73
2020/12/29 08:57:26;;;;;;;0.47;0.47;;;1.80;99.90;;;;;;4391923;32;20066;-74
2020/12/29 08:59:52;;;;;;;0.50;0.50;;;1.90;99.90;;;;;;4398985;32;20078;-74
2020/12/29 09:02:28;;;;;;;0.77;0.77;;;2.00;99.90;;;;;;4399284;32;20074;-74
2020/12/29 09:04:58;;;;;;;0.50;0.50;;;2.10;99.90;;;;;;4398214;32;20074;-74
2020/12/29 09:07:24;;;;;;;1.17;0.93;;;2.30;99.90;;;;;;4385150;32;20066;-74
2020/12/29 09:09:53;;;;;;;1.12;1.05;;;2.30;99.90;;;;;;4383179;32;20066;-74
2020/12/29 09:12:21;;;;;;;0.65;0.65;;;2.30;99.90;;;;;;4398016;32;20069;-74
2020/12/29 09:14:52;;;;;;;0.40;0.40;;;2.40;99.90;;;;;;4400567;32;20069;-74
2020/12/29 09:17:18;;;;;;;;;;;2.50;99.90;;;;;;4398865;32;20058;-74
2020/12/29 09:20:06;;;;;;;0.77;0.77;;;2.60;99.90;;;;;;4386630;32;19960;-74
2020/12/29 09:22:31;;;;;;;0.45;0.45;;;2.70;99.90;;;;;;4374888;32;20074;-74
2020/12/29 09:24:57;;;;;;;0.43;0.43;;;2.80;99.90;;;;;;4386122;32;20078;-74
2020/12/29 09:27:31;;;;;;;0.47;0.47;;;3.00;99.90;;;;;;4385575;32;20079;-74
2020/12/29 09:29:57;;;;;;;0.50;0.50;;;3.10;99.90;;;;;;4385733;32;20401;-74
2020/12/29 09:32:23;;;;;;;2.33;1.52;;;3.10;99.90;;;;;;4386988;32;20061;-74
2020/12/29 09:34:50;;;;;;;0.60;0.60;;;3.10;99.90;;;;;;4385551;32;20086;-74
2020/12/29 09:37:17;;;;;;;0.77;0.65;;;3.10;99.90;;;;;;4385904;32;20050;-74
2020/12/29 09:39:43;;;;;;;0.35;0.35;;;3.10;99.90;;;;;;4386913;32;20071;-74
2020/12/29 09:42:09;;;;;;;2.00;0.82;;;3.10;99.90;;;;;;4385739;32;20085;-74
2020/12/29 09:44:34;;;;;;;0.68;0.68;;;3.30;99.90;;;;;;4385024;32;20062;-74
2020/12/29 09:47:00;;;;;;;2.58;0.73;;;3.40;99.90;;;;;;4385688;32;20063;-74
2020/12/29 09:49:25;;;;;;;0.45;0.45;;;3.50;99.90;;;;;;4385413;32;20135;-74
2020/12/29 09:51:53;;;;;;;0.50;0.50;;;3.50;99.90;;;;;;4384931;32;20090;-74
2020/12/29 09:54:18;;;;;;;0.82;0.82;;;3.50;99.90;;;;;;4386112;32;20441;-74
2020/12/29 09:56:44;;;;;;;0.50;0.50;;;3.50;99.90;;;;;;4390407;32;20063;-74
2020/12/29 09:59:09;;;;;;;1.02;0.73;;;3.70;99.90;;;;;;4400367;32;20062;-74
2020/12/29 10:01:35;;;;;;;0.50;0.50;;;3.80;99.90;;;;;;4401382;32;20061;-74
2020/12/29 10:04:00;;;;;;;2.10;1.85;;;3.80;99.90;;;;;;4400066;32;20073;-74
2020/12/29 10:06:26;;;;;;;0.50;0.50;;;3.80;99.90;;;;;;4391652;32;20082;-74
2020/12/29 10:08:51;;;;;;;0.50;0.50;;;3.80;99.90;;;;;;4386108;32;20062;-74
2020/12/29 10:11:16;;;;;;;1.73;1.25;;;3.80;99.90;;;;;;4392243;32;20153;-74
2020/12/29 10:13:42;;;;;;;0.43;0.43;;;3.80;99.90;;;;;;4400424;32;20087;-74
2020/12/29 10:16:07;;;;;;;2.75;1.40;;;3.70;99.90;;;;;;4400205;32;20518;-74
2020/12/29 10:18:33;;;;;;;0.70;0.70;;;3.80;99.90;;;;;;4390237;32;20063;-74
2020/12/29 10:20:58;;;;;;;0.98;0.80;;;4.00;99.90;;;;;;4386349;32;20078;-74
2020/12/29 10:23:24;;;;;;;0.30;0.30;;;4.20;99.90;;;;;;4384050;32;20070;-74
2020/12/29 10:25:49;;;;;;;0.85;0.85;;;4.20;99.90;;;;;;4385389;32;20088;-74
2020/12/29 10:28:16;;;;;;;0.30;0.30;;;4.40;99.90;;;;;;4386244;32;20070;-74
2020/12/29 10:30:42;;;;;;;0.60;0.60;;;4.50;99.90;;;;;;4386444;32;20081;-74
2020/12/29 10:33:07;;;;;;;0.45;0.45;;;4.50;99.90;;;;;;4386046;32;20062;-74
2020/12/29 10:35:33;;;;;;;0.80;0.77;;;4.40;99.90;;;;;;4384438;32;20071;-74
2020/12/29 10:37:58;;;;;;;0.75;0.75;;;4.40;99.90;;;;;;4385041;32;20055;-74
2020/12/29 10:40:24;;;;;;;0.80;0.80;;;4.30;99.90;;;;;;4384269;32;20078;-74
2020/12/29 10:42:49;;;;;;;0.43;0.43;;;4.20;99.90;;;;;;4384733;32;20544;-74
2020/12/29 10:45:15;;;;;;;4.07;1.10;;;4.00;99.90;;;;;;4385702;32;20083;-74
2020/12/29 10:47:40;;;;;;;0.43;0.43;;;4.00;99.90;;;;;;4384442;32;20503;-74
2020/12/29 10:50:06;;;;;;;0.50;0.50;;;4.10;99.90;;;;;;4384637;32;20078;-74
2020/12/29 10:52:31;;;;;;;0.50;0.50;;;4.10;99.90;;;;;;4385039;32;20062;-74
2020/12/29 10:54:57;;;;;;;1.40;1.10;;;4.00;99.90;;;;;;4384541;32;20066;-74
2020/12/29 10:57:22;;;;;;;4.03;1.40;;;4.00;99.90;;;;;;4392491;32;20058;-74
2020/12/29 10:59:48;;;;;;;0.88;0.62;;;4.00;99.90;;;;;;4399985;32;20132;-74
2020/12/29 11:02:14;;;;;;;5.57;1.12;;;4.00;99.90;;;;;;4399817;32;20077;-74
2020/12/29 11:04:39;;;;;;;2.83;1.15;;;3.90;99.90;;;;;;4400250;32;20424;-74
2020/12/29 11:07:05;;;;;;;0.50;0.50;;;3.90;99.90;;;;;;4387231;32;20059;-74
2020/12/29 11:09:30;;;;;;;1.00;0.90;;;4.00;99.90;;;;;;4384609;32;20083;-74
2020/12/29 11:11:56;;;;;;;0.35;0.35;;;4.00;99.90;;;;;;4395085;32;20058;-74
2020/12/29 11:14:22;;;;;;;0.40;0.40;;;4.10;99.90;;;;;;4399878;32;20066;-74
2020/12/29 11:16:49;;;;;;;0.73;0.65;;;4.10;99.90;;;;;;4400783;32;20067;-74
2020/12/29 11:19:15;;;;;;;0.95;0.73;;;4.10;99.90;;;;;;4385945;32;20117;-73
2020/12/29 11:21:41;;;;;;;0.52;0.52;;;4.20;99.90;;;;;;4384319;32;20101;-73
2020/12/29 11:24:06;;;;;;;0.60;0.60;;;4.40;99.90;;;;;;4385256;32;20413;-74
2020/12/29 11:26:32;;;;;;;3.83;1.15;;;4.40;99.90;;;;;;4385918;32;20105;-74
2020/12/29 11:28:57;;;;;;;0.52;0.52;;;4.50;99.90;;;;;;4385747;32;20432;-74
2020/12/29 11:31:23;;;;;;;0.47;0.47;;;4.40;99.90;;;;;;4384186;32;20114;-73
2020/12/29 11:33:50;;;;;;;1.25;1.15;;;4.40;99.90;;;;;;4385254;32;20074;-73
2020/12/29 11:36:21;;;;;;;0.47;0.47;;;4.40;99.90;;;;;;4384472;32;20063;-74
2020/12/29 11:38:46;;;;;;;1.10;0.60;;;4.50;99.90;;;;;;4385426;32;20066;-74
2020/12/29 11:41:13;;;;;;;1.15;1.05;;;4.60;99.90;;;;;;4383803;32;20074;-74
2020/12/29 11:43:39;;;;;;;0.70;0.70;;;4.60;99.90;;;;;;4383943;32;20071;-74
2020/12/29 11:46:05;;;;;;;0.60;0.60;;;4.50;99.90;;;;;;4384637;32;20424;-74
2020/12/29 11:48:32;;;;;;;2.62;0.77;;;4.50;99.90;;;;;;4383967;32;20405;-74
2020/12/29 11:50:57;;;;;;;1.05;0.93;;;4.50;99.90;;;;;;4384116;32;20070;-74
2020/12/29 11:53:23;;;;;;;5.07;0.75;;;4.50;99.90;;;;;;4383619;32;20074;-73
2020/12/29 11:55:48;;;;;;;0.50;0.50;;;4.60;99.90;;;;;;4384566;32;20067;-75
2020/12/29 11:58:14;;;;;;;0.30;0.30;;;4.60;99.90;;;;;;4397391;32;20528;-75
2020/12/29 12:00:39;;;;;;;9.25;1.00;;;4.70;99.90;;;;;;4398962;32;20129;-75
2020/12/29 12:03:05;;;;;;;0.50;0.50;;;4.70;99.90;;;;;;4399127;32;20070;-75
2020/12/29 12:05:30;;;;;;;0.62;0.62;;;4.80;99.90;;;;;;4397133;32;20152;-76
2020/12/29 12:07:56;;;;;;;0.50;0.50;;;4.80;99.90;;;;;;4383899;32;20070;-74
2020/12/29 12:10:21;;;;;;;0.73;0.73;;;4.70;99.90;;;;;;4385216;32;20074;-73
2020/12/29 12:12:47;;;;;;;1.98;1.00;;;4.80;99.90;;;;;;4398726;32;20137;-73
2020/12/29 12:15:12;;;;;;;0.57;0.57;;;4.90;99.90;;;;;;4398740;32;20070;-74
2020/12/29 12:17:37;;;;;;;0.50;0.50;;;5.00;99.90;;;;;;4394213;32;20424;-74
2020/12/29 12:20:04;;;;;;;0.82;0.60;;;5.00;99.90;;;;;;4384448;32;20062;-75
2020/12/29 12:22:29;;;;;;;0.55;0.55;;;5.10;99.90;;;;;;4383939;32;20062;-75
2020/12/29 12:24:55;;;;;;;2.00;1.30;;;5.20;99.90;;;;;;4382986;32;20397;-75
2020/12/29 12:27:20;;;;;;;0.85;0.60;;;5.20;99.90;;;;;;4383992;32;20145;-75
2020/12/29 12:29:46;;;;;;;0.60;0.60;;;5.30;99.90;;;;;;4384659;32;20499;-74
2020/12/29 12:32:11;;;;;;;0.62;0.62;;;5.30;99.90;;;;;;4383910;32;20165;-75
2020/12/29 12:34:37;;;;;;;0.65;0.65;;;5.40;99.90;;;;;;4384076;32;20503;-75
2020/12/29 12:37:03;;;;;;;0.40;0.40;;;5.40;99.90;;;;;;4383869;32;20074;-74
2020/12/29 12:39:28;;;;;;;2.62;1.05;;;5.40;99.90;;;;;;4384112;32;20074;-75
2020/12/29 12:41:54;;;;;;;0.70;0.70;;;5.40;99.90;;;;;;4383327;32;20130;-75
2020/12/29 12:44:19;;;;;;;0.62;0.62;;;5.30;99.90;;;;;;4383763;32;20079;-74
2020/12/29 12:46:45;;;;;;;0.65;0.65;;;5.20;99.90;;;;;;4384725;32;20066;-75
2020/12/29 12:49:12;;;;;;;1.45;0.68;;;5.20;99.90;;;;;;4386019;32;20075;-75
2020/12/29 12:51:44;;;;;;;0.47;0.47;;;5.30;99.90;;;;;;4386820;32;20066;-74
2020/12/29 12:54:09;;;;;;;0.40;0.40;;;5.10;99.90;;;;;;4386014;32;20075;-74
2020/12/29 12:56:42;;;;;;;0.55;0.55;;;5.10;99.90;;;;;;4390227;32;20061;-75